Time;durP1;ratioP1;P1;durP2;ratioP2;P2;SDS_P1;SDS_P2;PMS_P1;PMS_P2;Temp;Humidity;BMP_temperature;BMP_pressure;BME280_temperature;BME280_humidity;BME280_pressure;Samples;Min_cycle;Max_cycle;Signal;HPM_P1;HPM_P2
2023/09/30 00:00:55;;;;;;;14.20;3.67;;;;;;;22.18;59.43;100738.19;5031904;28;20442;-88
2023/09/30 00:03:20;;;;;;;12.73;3.40;;;;;;;22.10;59.28;100746.59;5031573;28;20104;-89
2023/09/30 00:05:46;;;;;;;13.13;3.77;;;;;;;22.02;59.71;100746.91;5031428;28;20436;-87
2023/09/30 00:08:11;;;;;;;13.50;3.60;;;;;;;21.96;60.22;100744.53;4999909;28;20284;-88
2023/09/30 00:10:37;;;;;;;15.80;3.53;;;;;;;21.93;59.88;100750.88;5012680;28;20049;-89
2023/09/30 00:13:03;;;;;;;11.75;3.30;;;;;;;21.95;59.90;100748.16;5012882;28;20474;-90
2023/09/30 00:15:28;;;;;;;12.90;3.37;;;;;;;21.99;59.67;100755.09;5015564;28;20069;-89
2023/09/30 00:17:53;;;;;;;11.27;3.47;;;;;;;21.96;60.01;100754.41;5014231;28;20076;-89
2023/09/30 00:20:19;;;;;;;12.55;3.20;;;;;;;21.89;60.04;100759.16;5026951;28;20036;-87
2023/09/30 00:22:44;;;;;;;12.27;3.50;;;;;;;21.88;60.13;100754.72;5032015;28;20450;-87
2023/09/30 00:25:10;;;;;;;12.40;3.37;;;;;;;21.86;60.13;100761.97;5034404;28;20097;-87
2023/09/30 00:27:36;;;;;;;10.30;3.05;;;;;;;21.85;60.23;100755.72;5031674;28;20048;-87
2023/09/30 00:30:02;;;;;;;12.37;3.30;;;;;;;21.86;60.14;100759.28;5030922;28;20037;-88
2023/09/30 00:32:28;;;;;;;12.38;3.47;;;;;;;21.85;60.22;100753.03;5031429;28;20359;-89
2023/09/30 00:34:54;;;;;;;12.77;3.45;;;;;;;21.88;60.12;100749.38;5035596;28;20039;-87
2023/09/30 00:37:20;;;;;;;11.52;3.47;;;;;;;21.88;60.36;100752.03;5015565;28;20045;-88
2023/09/30 00:39:45;;;;;;;11.63;3.87;;;;;;;21.89;59.92;100754.63;5032786;28;20044;-88
2023/09/30 00:42:11;;;;;;;10.03;2.80;;;;;;;21.89;59.97;100754.63;5014034;28;20112;-87
2023/09/30 00:44:36;;;;;;;10.07;3.30;;;;;;;21.86;60.08;100752.09;5030797;28;20026;-87
2023/09/30 00:47:02;;;;;;;8.80;2.47;;;;;;;21.76;60.47;100750.75;5030797;28;20445;-88
2023/09/30 00:49:29;;;;;;;11.13;3.30;;;;;;;21.69;60.56;100752.84;5013188;28;20577;-89
2023/09/30 00:51:55;;;;;;;13.40;3.25;;;;;;;21.62;60.75;100752.19;5030753;28;20053;-88
2023/09/30 00:54:22;;;;;;;11.88;3.25;;;;;;;21.58;60.83;100750.56;5030706;28;20037;-88
2023/09/30 00:56:50;;;;;;;11.50;2.92;;;;;;;21.54;60.50;100756.13;5030690;28;20025;-88
2023/09/30 00:59:16;;;;;;;10.10;2.88;;;;;;;21.54;60.84;100745.41;5030872;28;20033;-87
2023/09/30 01:01:45;;;;;;;10.67;2.73;;;;;;;21.47;61.04;100748.34;5013717;28;20024;-88
2023/09/30 01:04:12;;;;;;;10.05;2.90;;;;;;;21.47;61.13;100743.00;5031966;28;20038;-87
2023/09/30 01:06:37;;;;;;;11.18;2.80;;;;;;;21.49;60.97;100743.78;5029767;28;20123;-88
2023/09/30 01:09:03;;;;;;;9.40;2.67;;;;;;;21.50;60.62;100753.56;5011024;28;20092;-87
2023/09/30 01:11:29;;;;;;;9.90;2.72;;;;;;;21.48;60.88;100747.41;5011976;28;20021;-87
2023/09/30 01:13:55;;;;;;;10.38;2.78;;;;;;;21.41;61.12;100747.72;5013759;28;20029;-87
2023/09/30 01:16:21;;;;;;;11.37;2.93;;;;;;;21.35;61.02;100740.84;5012170;28;20354;-87
2023/09/30 01:18:46;;;;;;;10.60;3.08;;;;;;;21.29;61.25;100749.09;5014166;28;20032;-88
2023/09/30 01:21:12;;;;;;;12.47;3.03;;;;;;;21.24;61.32;100754.69;5013812;28;20093;-88
2023/09/30 01:23:38;;;;;;;11.80;2.93;;;;;;;21.19;61.44;100754.84;5033266;28;20500;-87
2023/09/30 01:26:09;;;;;;;8.90;2.47;;;;;;;21.14;61.67;100748.81;5031949;28;20033;-88
2023/09/30 01:28:34;;;;;;;11.13;3.20;;;;;;;21.06;61.62;100753.59;5032315;28;20033;-87
2023/09/30 01:31:00;;;;;;;12.37;3.03;;;;;;;20.99;62.11;100757.47;5030649;28;20025;-87
2023/09/30 01:33:26;;;;;;;9.55;2.80;;;;;;;20.93;62.16;100755.88;5029396;28;20028;-87
2023/09/30 01:35:52;;;;;;;9.15;2.97;;;;;;;20.91;62.15;100747.94;5029519;28;20037;-87
2023/09/30 01:38:18;;;;;;;10.07;2.77;;;;;;;20.89;62.32;100752.47;5030064;28;20037;-87
2023/09/30 01:40:43;;;;;;;10.10;3.28;;;;;;;20.88;62.16;100755.22;5029114;28;20067;-88
2023/09/30 01:43:09;;;;;;;10.77;2.87;;;;;;;20.87;62.03;100758.81;5012262;28;20033;-87
2023/09/30 01:45:35;;;;;;;12.20;3.10;;;;;;;20.88;62.41;100745.38;5010052;28;20025;-87
2023/09/30 01:48:02;;;;;;;10.73;3.00;;;;;;;20.92;62.22;100752.34;5009728;28;20018;-88
2023/09/30 01:50:27;;;;;;;9.48;2.80;;;;;;;20.92;62.00;100752.34;4993466;28;20029;-87
2023/09/30 01:52:53;;;;;;;11.67;2.57;;;;;;;20.89;62.04;100755.16;5011324;28;20521;-87
2023/09/30 01:55:18;;;;;;;11.30;3.10;;;;;;;20.88;62.16;100760.56;5010256;28;20073;-87
2023/09/30 01:57:43;;;;;;;9.50;2.97;;;;;;;20.85;61.89;100750.84;4991786;28;20022;-87
2023/09/30 02:00:09;;;;;;;10.50;3.00;;;;;;;20.85;61.96;100748.16;5020069;28;20271;-87
2023/09/30 02:02:36;;;;;;;11.50;3.20;;;;;;;20.84;62.15;100749.09;5030422;28;20116;-87
2023/09/30 02:05:02;;;;;;;10.07;3.05;;;;;;;20.80;62.39;100752.81;5030799;28;20040;-87
2023/09/30 02:07:29;;;;;;;11.70;2.83;;;;;;;20.75;62.26;100749.44;5037681;28;20028;-88
2023/09/30 02:09:54;;;;;;;11.52;3.30;;;;;;;20.70;62.15;100751.41;5050334;28;20020;-87
2023/09/30 02:12:19;;;;;;;13.27;3.00;;;;;;;20.67;62.31;100748.88;5033384;28;20059;-87
2023/09/30 02:14:46;;;;;;;10.70;2.60;;;;;;;20.65;62.35;100754.25;5050410;28;20394;-88
2023/09/30 02:17:11;;;;;;;12.25;2.90;;;;;;;20.65;62.50;100749.78;5051483;28;20436;-87
2023/09/30 02:19:36;;;;;;;12.73;3.07;;;;;;;20.65;62.36;100755.16;5029437;28;20084;-87
2023/09/30 02:22:02;;;;;;;9.90;2.77;;;;;;;20.64;62.44;100757.88;5009514;28;20116;-87
2023/09/30 02:24:27;;;;;;;14.05;2.88;;;;;;;20.63;62.41;100757.03;5010469;28;20033;-88
2023/09/30 02:26:53;;;;;;;11.63;2.70;;;;;;;20.63;62.55;100757.03;5022972;28;20038;-87
2023/09/30 02:29:18;;;;;;;12.07;3.03;;;;;;;20.60;62.18;100758.94;5029268;28;20063;-87
2023/09/30 02:31:43;;;;;;;9.70;2.67;;;;;;;20.58;62.45;100763.47;5029204;28;20509;-87
2023/09/30 02:34:09;;;;;;;9.07;2.40;;;;;;;20.56;62.51;100762.66;5028763;28;20026;-88
2023/09/30 02:36:40;;;;;;;9.47;2.50;;;;;;;20.54;62.45;100762.69;5011151;28;20299;-88
2023/09/30 02:39:05;;;;;;;9.70;2.78;;;;;;;20.53;62.35;100766.31;5030492;28;20025;-87
2023/09/30 02:41:31;;;;;;;9.97;2.50;;;;;;;20.49;62.25;100767.34;5032423;28;20363;-88
2023/09/30 02:43:56;;;;;;;11.00;3.10;;;;;;;20.48;62.28;100765.63;5031425;28;20414;-88
2023/09/30 02:46:21;;;;;;;7.80;2.50;;;;;;;20.46;62.42;100754.97;5033893;28;20148;-89
2023/09/30 02:48:47;;;;;;;9.63;2.77;;;;;;;20.42;62.43;100747.97;5035164;28;20104;-88
2023/09/30 02:51:12;;;;;;;9.57;2.77;;;;;;;20.40;62.52;100749.84;5036056;28;20032;-87
2023/09/30 02:53:38;;;;;;;10.63;2.83;;;;;;;20.39;62.37;100748.09;5034696;28;20708;-87
2023/09/30 02:56:04;;;;;;;10.93;2.93;;;;;;;20.37;62.19;100744.63;5032662;28;20025;-87
2023/09/30 02:58:30;;;;;;;9.38;2.40;;;;;;;20.34;62.29;100756.28;5033228;28;20097;-87
2023/09/30 03:00:55;;;;;;;10.07;2.60;;;;;;;20.32;62.77;100747.44;5034247;28;20452;-87
2023/09/30 03:03:21;;;;;;;9.87;2.50;;;;;;;20.31;62.57;100750.19;5034430;28;20037;-87
2023/09/30 03:05:48;;;;;;;8.93;2.55;;;;;;;20.29;62.29;100744.91;5034215;28;20021;-88
2023/09/30 03:08:14;;;;;;;9.15;2.90;;;;;;;20.26;62.82;100747.69;5018721;28;20080;-87
2023/09/30 03:10:40;;;;;;;10.00;2.47;;;;;;;20.22;62.86;100751.41;5013214;28;20436;-87
2023/09/30 03:13:07;;;;;;;10.98;2.70;;;;;;;20.21;62.57;100749.66;5012651;28;20028;-87
2023/09/30 03:15:33;;;;;;;11.52;2.92;;;;;;;20.20;62.64;100748.78;5027508;28;20083;-87
2023/09/30 03:17:59;;;;;;;8.23;2.40;;;;;;;20.18;62.76;100750.63;5012680;28;20109;-87
2023/09/30 03:20:25;;;;;;;11.37;3.00;;;;;;;20.16;63.07;100746.28;5029383;28;20311;-87
2023/09/30 03:22:51;;;;;;;10.05;2.78;;;;;;;20.15;62.84;100740.06;5032444;28;20525;-87
2023/09/30 03:25:19;;;;;;;9.48;2.80;;;;;;;20.12;62.92;100736.59;5032093;28;20026;-87
2023/09/30 03:27:46;;;;;;;10.27;2.90;;;;;;;20.08;63.37;100739.41;5032420;28;20536;-87
2023/09/30 03:30:12;;;;;;;10.47;3.23;;;;;;;20.04;63.11;100737.78;5033043;28;20402;-87
2023/09/30 03:32:38;;;;;;;9.60;2.50;;;;;;;20.01;63.38;100737.88;5032279;28;20022;-87
2023/09/30 03:35:05;;;;;;;10.07;2.83;;;;;;;20.01;63.53;100742.34;5031725;28;20036;-87
2023/09/30 03:37:32;;;;;;;8.05;2.88;;;;;;;20.00;63.31;100733.47;5032169;28;20140;-87
2023/09/30 03:39:57;;;;;;;9.40;2.63;;;;;;;19.99;63.44;100739.75;5034441;28;20132;-87
2023/09/30 03:42:23;;;;;;;8.50;2.70;;;;;;;19.95;63.43;100743.47;5034086;28;20040;-87
2023/09/30 03:44:49;;;;;;;14.10;2.90;;;;;;;19.93;63.33;100745.31;5032034;28;20079;-87
2023/09/30 03:47:16;;;;;;;8.18;2.75;;;;;;;19.92;63.53;100740.91;5031795;28;20116;-86
2023/09/30 03:49:42;;;;;;;8.43;2.77;;;;;;;19.91;63.47;100749.84;5034274;28;20025;-87
2023/09/30 03:52:09;;;;;;;8.95;2.83;;;;;;;19.86;63.40;100749.97;5033842;28;20033;-87
2023/09/30 03:54:35;;;;;;;8.75;2.47;;;;;;;19.83;63.66;100750.06;5032283;28;20060;-87
2023/09/30 03:57:00;;;;;;;11.52;3.13;;;;;;;19.79;63.83;100743.97;5032029;28;20033;-87
2023/09/30 03:59:26;;;;;;;9.30;2.60;;;;;;;19.80;63.73;100755.53;5027966;28;20117;-87
2023/09/30 04:01:53;;;;;;;11.07;3.10;;;;;;;19.79;63.68;100748.44;5011548;28;20037;-87
2023/09/30 04:04:19;;;;;;;8.97;2.90;;;;;;;19.75;63.67;100753.00;5011778;28;20030;-87
2023/09/30 04:06:46;;;;;;;9.20;2.90;;;;;;;19.73;63.49;100744.19;5014310;28;20065;-87
2023/09/30 04:09:13;;;;;;;10.77;2.75;;;;;;;19.72;63.56;100746.88;5031387;28;20029;-87
2023/09/30 04:11:38;;;;;;;8.10;2.40;;;;;;;19.70;63.50;100754.97;5031418;28;20031;-86
2023/09/30 04:14:07;;;;;;;7.87;2.40;;;;;;;19.60;63.69;100741.06;5033868;28;20041;-87
2023/09/30 04:16:33;;;;;;;12.18;3.22;;;;;;;19.51;64.08;100744.91;5033415;28;20112;-86
2023/09/30 04:18:59;;;;;;;12.07;3.35;;;;;;;19.42;64.35;100750.56;5009006;28;20053;-86
2023/09/30 04:21:24;;;;;;;8.70;2.67;;;;;;;19.39;64.49;100753.31;5013321;28;20106;-87
2023/09/30 04:23:50;;;;;;;10.17;3.00;;;;;;;19.38;64.78;100748.91;5014472;28;20044;-87
2023/09/30 04:26:15;;;;;;;8.75;2.80;;;;;;;19.38;64.97;100742.72;5023595;28;20116;-87
2023/09/30 04:28:41;;;;;;;9.60;2.83;;;;;;;19.36;65.01;100745.41;5036004;28;20420;-87
2023/09/30 04:31:07;;;;;;;8.27;2.40;;;;;;;19.33;65.05;100751.75;5018415;28;20509;-86
2023/09/30 04:33:35;;;;;;;8.45;3.10;;;;;;;19.32;65.14;100743.78;5032991;28;20036;-87
2023/09/30 04:36:01;;;;;;;9.20;2.88;;;;;;;19.32;65.38;100750.00;5034654;28;20052;-86
2023/09/30 04:38:26;;;;;;;13.20;2.90;;;;;;;19.32;65.26;100749.13;5036445;28;20026;-86
2023/09/30 04:40:54;;;;;;;12.17;2.33;;;;;;;19.32;65.30;100746.44;5033801;28;20543;-86
2023/09/30 04:43:20;;;;;;;7.35;2.53;;;;;;;19.33;65.50;100745.53;5031239;28;20053;-87
2023/09/30 04:45:46;;;;;;;6.93;2.50;;;;;;;19.32;65.55;100741.09;5031123;28;20089;-86
2023/09/30 04:48:12;;;;;;;9.30;2.63;;;;;;;19.26;66.00;100744.84;5030326;28;20113;-87
2023/09/30 04:50:41;;;;;;;7.82;2.58;;;;;;;19.18;65.98;100739.78;5030906;28;20058;-86
2023/09/30 04:53:08;;;;;;;12.00;2.50;;;;;;;19.10;66.23;100741.81;5009314;28;20022;-86
2023/09/30 04:55:34;;;;;;;7.13;2.22;;;;;;;19.07;66.46;100748.13;5010464;28;20095;-86
2023/09/30 04:57:59;;;;;;;8.77;2.40;;;;;;;19.05;66.61;100746.41;5010515;28;20042;-86
2023/09/30 05:00:25;;;;;;;7.05;2.60;;;;;;;19.04;66.45;100750.00;5022071;28;20075;-86
2023/09/30 05:02:52;;;;;;;7.87;2.37;;;;;;;19.02;66.55;100751.84;5030048;28;20433;-86
2023/09/30 05:05:18;;;;;;;9.55;2.42;;;;;;;19.01;66.52;100752.78;5030562;28;20034;-86
2023/09/30 05:07:46;;;;;;;10.50;2.85;;;;;;;19.00;66.90;100759.03;5002333;28;20033;-86
2023/09/30 05:10:13;;;;;;;8.60;2.47;;;;;;;18.99;66.64;100759.97;5010825;28;20030;-87
2023/09/30 05:12:38;;;;;;;9.82;2.63;;;;;;;19.00;66.76;100767.91;5014915;28;20030;-86
2023/09/30 05:15:07;;;;;;;7.97;2.50;;;;;;;18.98;66.79;100760.84;5021156;28;20137;-86
2023/09/30 05:17:33;;;;;;;9.93;2.30;;;;;;;18.91;67.06;100761.03;5019958;28;20273;-86
2023/09/30 05:19:59;;;;;;;5.67;2.37;;;;;;;18.91;67.02;100766.34;5024805;28;20030;-86
2023/09/30 05:22:24;;;;;;;8.70;2.20;;;;;;;18.91;66.96;100763.69;5015654;28;20442;-86
2023/09/30 05:24:53;;;;;;;6.40;2.30;;;;;;;18.91;67.23;100773.50;5014926;28;20115;-87
2023/09/30 05:27:19;;;;;;;7.43;2.40;;;;;;;18.96;66.83;100784.06;5021868;28;20040;-87
2023/09/30 05:29:44;;;;;;;6.32;2.28;;;;;;;18.98;66.72;100780.44;5033420;28;20470;-86
2023/09/30 05:32:10;;;;;;;8.43;2.38;;;;;;;18.99;66.64;100782.16;5030874;28;20022;-86
2023/09/30 05:34:37;;;;;;;8.43;2.33;;;;;;;19.00;66.74;100781.25;5030286;28;20029;-87
2023/09/30 05:37:03;;;;;;;8.30;2.35;;;;;;;19.01;66.52;100784.81;5029862;28;20315;-86
2023/09/30 05:39:28;;;;;;;9.80;2.53;;;;;;;18.97;66.85;100786.66;5029815;28;20296;-87
2023/09/30 05:41:55;;;;;;;9.98;2.63;;;;;;;18.96;66.66;100784.06;5029690;28;20028;-86
2023/09/30 05:44:20;;;;;;;8.50;2.15;;;;;;;18.90;66.70;100785.97;5030527;28;20031;-87
2023/09/30 05:46:46;;;;;;;9.03;2.20;;;;;;;18.85;66.89;100795.06;5029873;28;20021;-87
2023/09/30 05:49:13;;;;;;;10.03;2.60;;;;;;;18.81;67.08;100791.59;5029696;28;20017;-87
2023/09/30 05:51:42;;;;;;;7.22;2.20;;;;;;;18.75;66.99;100797.97;5029848;28;20029;-87
2023/09/30 05:54:09;;;;;;;7.65;2.70;;;;;;;18.72;67.18;100797.22;5029674;28;20029;-87
2023/09/30 05:56:37;;;;;;;9.60;2.72;;;;;;;18.65;67.37;100792.03;5011834;28;20056;-87
2023/09/30 05:59:03;;;;;;;7.07;2.45;;;;;;;18.59;67.85;100797.56;5029455;28;20033;-87
2023/09/30 06:01:28;;;;;;;6.63;2.20;;;;;;;18.58;68.07;100801.16;5009907;28;20033;-87
2023/09/30 06:03:54;;;;;;;7.60;2.53;;;;;;;18.59;67.71;100796.69;5009469;28;20032;-86
2023/09/30 06:06:20;;;;;;;8.68;2.55;;;;;;;18.61;67.76;100797.53;5010229;28;20465;-86
2023/09/30 06:08:45;;;;;;;8.47;2.47;;;;;;;18.62;67.76;100802.78;5011601;28;20035;-87
2023/09/30 06:11:28;;;;;;;7.47;2.70;;;;;;;18.60;68.56;100804.63;5030546;28;20270;-86
2023/09/30 06:14:01;;;;;;;9.68;2.33;;;;;;;18.56;68.61;100808.31;5029471;28;20528;-86
2023/09/30 06:16:31;;;;;;;8.10;2.50;;;;;;;18.58;68.35;100806.47;5029379;28;20029;-87
2023/09/30 06:18:57;;;;;;;7.78;2.28;;;;;;;18.61;68.33;100811.72;5027552;28;20022;-86
2023/09/30 06:21:24;;;;;;;6.67;2.40;;;;;;;18.64;68.16;100821.44;5014671;28;20045;-87
2023/09/30 06:23:53;;;;;;;8.25;2.42;;;;;;;18.67;68.50;100815.13;5026256;28;20464;-87
2023/09/30 06:26:20;;;;;;;10.55;2.90;;;;;;;18.61;68.71;100814.38;5015297;28;20064;-86
2023/09/30 06:28:47;;;;;;;9.88;2.92;;;;;;;18.60;68.86;100815.31;5034225;28;20029;-86
2023/09/30 06:31:14;;;;;;;9.37;2.47;;;;;;;18.61;68.74;100814.38;5033085;28;20061;-86
2023/09/30 06:33:40;;;;;;;8.27;2.40;;;;;;;18.64;68.61;100816.09;5032774;28;20653;-87
2023/09/30 06:36:10;;;;;;;8.30;2.67;;;;;;;18.67;68.94;100821.34;5014882;28;20134;-87
2023/09/30 06:38:37;;;;;;;9.25;2.80;;;;;;;18.71;68.80;100827.47;5034021;28;20060;-86
2023/09/30 06:41:03;;;;;;;8.93;2.50;;;;;;;18.73;68.87;100828.31;5035051;28;20025;-85
2023/09/30 06:43:29;;;;;;;7.43;2.80;;;;;;;18.73;68.85;100814.97;5016693;28;20033;-86
2023/09/30 06:45:55;;;;;;;8.32;2.80;;;;;;;18.70;69.28;100815.91;5015616;28;20032;-85
2023/09/30 06:48:21;;;;;;;8.73;2.80;;;;;;;18.75;69.23;100821.13;5033030;28;20063;-85
2023/09/30 06:50:48;;;;;;;8.70;2.80;;;;;;;18.77;69.26;100824.63;5033921;28;20268;-85
2023/09/30 06:53:18;;;;;;;9.50;2.90;;;;;;;18.83;69.59;100821.75;5033356;28;20272;-85
2023/09/30 06:55:43;;;;;;;8.85;2.88;;;;;;;18.93;69.78;100817.91;5033325;28;20477;-85
2023/09/30 06:58:10;;;;;;;6.77;2.97;;;;;;;19.15;69.20;100824.41;5036178;28;20030;-85
2023/09/30 07:00:36;;;;;;;8.85;2.88;;;;;;;19.36;68.36;100831.75;5022723;28;20029;-85
2023/09/30 07:03:02;;;;;;;7.90;2.78;;;;;;;19.56;68.04;100826.69;5012667;28;20117;-86
2023/09/30 07:05:30;;;;;;;9.87;3.13;;;;;;;19.75;67.77;100830.50;5013382;28;20110;-85
2023/09/30 07:07:56;;;;;;;13.23;3.17;;;;;;;19.93;67.40;100838.88;5027378;28;20382;-86
2023/09/30 07:10:22;;;;;;;7.55;2.72;;;;;;;20.08;66.64;100829.44;5034038;28;20037;-86
2023/09/30 07:12:47;;;;;;;8.73;3.10;;;;;;;20.18;66.43;100830.84;5032787;28;20362;-86
2023/09/30 07:15:13;;;;;;;9.67;3.27;;;;;;;20.26;66.64;100837.75;5032883;28;20072;-85
2023/09/30 07:17:39;;;;;;;7.30;3.00;;;;;;;20.35;66.15;100830.25;5032000;28;20022;-85
2023/09/30 07:20:06;;;;;;;8.00;2.60;;;;;;;20.46;66.32;100829.00;5008087;28;20382;-85
2023/09/30 07:22:35;;;;;;;7.78;2.90;;;;;;;20.53;65.86;100840.38;5012161;28;20102;-85
2023/09/30 07:25:02;;;;;;;9.85;2.88;;;;;;;20.58;65.48;100833.88;5012236;28;20491;-85
2023/09/30 07:27:27;;;;;;;10.67;3.10;;;;;;;20.59;65.73;100830.28;5030420;28;20022;-86
2023/09/30 07:29:53;;;;;;;9.82;3.38;;;;;;;20.59;65.71;100824.94;5031946;28;20087;-88
2023/09/30 07:32:18;;;;;;;7.97;2.53;;;;;;;20.72;65.47;100829.84;5014087;28;20367;-85
2023/09/30 07:34:44;;;;;;;9.53;3.07;;;;;;;20.87;65.48;100840.00;5032250;28;20561;-85
2023/09/30 07:37:09;;;;;;;8.10;2.90;;;;;;;21.00;65.01;100840.41;5031823;28;20409;-85
2023/09/30 07:39:35;;;;;;;9.87;2.57;;;;;;;21.07;64.94;100847.28;5032498;28;20037;-86
2023/09/30 07:42:01;;;;;;;8.93;2.70;;;;;;;21.13;65.04;100845.28;5031725;28;20440;-85
2023/09/30 07:44:26;;;;;;;8.63;2.80;;;;;;;21.22;64.80;100845.78;5030750;28;20038;-85
2023/09/30 07:46:52;;;;;;;8.60;2.87;;;;;;;21.35;64.39;100856.03;5029640;28;20394;-85
2023/09/30 07:49:17;;;;;;;11.87;3.00;;;;;;;21.49;64.04;100853.66;5031133;28;20308;-85
2023/09/30 07:51:43;;;;;;;13.80;2.80;;;;;;;21.60;63.78;100850.53;5029521;28;20378;-84
2023/09/30 07:54:09;;;;;;;9.45;2.72;;;;;;;21.72;63.50;100851.88;5029882;28;20636;-86
2023/09/30 07:56:34;;;;;;;12.63;2.63;;;;;;;21.87;63.16;100852.19;5031462;28;20036;-86
2023/09/30 07:58:59;;;;;;;11.63;3.23;;;;;;;22.01;63.00;100856.97;5030085;28;20432;-86
2023/09/30 08:01:25;;;;;;;7.07;2.70;;;;;;;22.18;62.62;100851.72;5030223;28;20041;-85
2023/09/30 08:03:50;;;;;;;8.23;2.57;;;;;;;22.32;62.27;100859.19;5031378;28;20030;-85
2023/09/30 08:06:16;;;;;;;8.07;2.20;;;;;;;22.50;62.28;100862.00;5030783;28;20045;-85
2023/09/30 08:08:41;;;;;;;10.80;2.83;;;;;;;22.72;61.59;100855.66;5033104;28;20409;-84
2023/09/30 08:11:07;;;;;;;8.35;2.47;;;;;;;22.93;61.21;100854.69;5032070;28;20064;-85
2023/09/30 08:13:33;;;;;;;9.48;2.72;;;;;;;23.14;60.59;100853.75;5017689;28;20091;-81
2023/09/30 08:15:59;;;;;;;9.83;2.30;;;;;;;23.33;60.43;100843.03;5025162;28;20084;-81
2023/09/30 08:18:25;;;;;;;9.77;2.60;;;;;;;23.60;59.75;100848.84;5011654;28;20026;-79
2023/09/30 08:20:50;;;;;;;9.83;2.40;;;;;;;23.82;59.52;100853.16;5030711;28;20108;-82
2023/09/30 08:23:16;;;;;;;10.00;2.40;;;;;;;24.00;59.03;100846.00;5031185;28;20057;-81
2023/09/30 08:25:41;;;;;;;9.73;2.70;;;;;;;24.24;58.31;100845.72;5030748;28;20026;-80
2023/09/30 08:28:09;;;;;;;8.03;2.90;;;;;;;24.38;58.04;100847.66;5030875;28;20466;-78
2023/09/30 08:30:35;;;;;;;9.07;2.63;;;;;;;24.50;57.53;100849.69;5016051;28;20068;-80
2023/09/30 08:33:00;;;;;;;11.75;2.67;;;;;;;24.56;56.95;100851.19;5013276;28;20441;-82
2023/09/30 08:35:25;;;;;;;7.73;2.60;;;;;;;24.59;56.93;100851.03;4992483;28;20042;-82
2023/09/30 08:37:51;;;;;;;10.83;3.10;;;;;;;24.61;56.98;100850.97;5010696;28;20053;-81
2023/09/30 08:40:20;;;;;;;10.27;2.77;;;;;;;24.65;56.71;100852.53;5022312;28;20026;-80
2023/09/30 08:42:51;;;;;;;8.33;2.70;;;;;;;24.73;56.62;100850.28;5029534;28;20322;-80
2023/09/30 08:45:17;;;;;;;7.88;2.30;;;;;;;24.81;56.71;100847.19;5028007;28;20322;-80
2023/09/30 08:47:43;;;;;;;8.27;2.40;;;;;;;24.95;56.77;100843.75;5021090;28;20402;-80
2023/09/30 08:50:10;;;;;;;16.17;2.80;;;;;;;25.10;56.33;100847.41;5012259;28;20087;-80
2023/09/30 08:52:37;;;;;;;10.55;2.60;;;;;;;25.23;56.16;100842.19;5030057;28;20029;-82
2023/09/30 08:55:03;;;;;;;10.27;3.10;;;;;;;25.47;55.56;100839.97;5030413;28;20044;-80
2023/09/30 08:57:29;;;;;;;12.45;2.60;;;;;;;25.65;55.20;100839.81;5030798;28;20017;-81
2023/09/30 08:59:55;;;;;;;9.13;2.70;;;;;;;25.88;54.98;100832.22;5023629;28;20062;-80
2023/09/30 09:02:20;;;;;;;12.18;2.83;;;;;;;26.12;53.65;100834.38;5010939;28;20033;-80
2023/09/30 09:04:46;;;;;;;7.97;2.33;;;;;;;26.27;54.00;100829.91;5020629;28;20534;-81
2023/09/30 09:07:12;;;;;;;10.20;2.63;;;;;;;26.40;53.10;100832.72;5016879;28;20307;-81
2023/09/30 09:09:37;;;;;;;9.47;2.57;;;;;;;26.54;53.08;100835.44;5030657;28;20428;-81
2023/09/30 09:12:03;;;;;;;10.18;2.80;;;;;;;26.67;52.71;100840.94;5030019;28;20516;-80
2023/09/30 09:14:38;;;;;;;10.07;2.70;;;;;;;26.71;52.11;100830.81;5030550;28;20151;-81
2023/09/30 09:17:06;;;;;;;8.00;2.53;;;;;;;26.83;52.28;100830.03;5030944;28;20057;-82
2023/09/30 09:19:31;;;;;;;9.25;3.08;;;;;;;27.02;51.40;100827.06;5030613;28;20516;-81
2023/09/30 09:21:58;;;;;;;12.03;3.30;;;;;;;27.20;51.41;100835.81;5029996;28;20104;-81
2023/09/30 09:24:36;;;;;;;11.23;3.22;;;;;;;27.32;50.69;100830.56;5029875;28;20103;-81
2023/09/30 09:27:06;;;;;;;11.90;3.13;;;;;;;27.54;50.24;100830.03;5029180;28;20512;-81
2023/09/30 09:29:32;;;;;;;9.82;2.83;;;;;;;27.70;49.41;100829.00;5029913;28;20022;-83
2023/09/30 09:32:11;;;;;;;10.38;2.58;;;;;;;27.77;49.59;100833.03;5029446;28;20242;-85
2023/09/30 09:34:38;;;;;;;11.43;2.87;;;;;;;27.98;48.75;100827.97;5029907;28;20033;-86
2023/09/30 09:37:13;;;;;;;10.93;3.20;;;;;;;28.06;48.60;100827.47;5028884;28;20413;-88
2023/09/30 09:39:56;;;;;;;10.32;2.42;;;;;;;28.20;47.48;100818.41;5031189;28;20033;-90
2023/09/30 09:42:29;;;;;;;8.55;2.35;;;;;;;28.43;47.40;100811.34;5030650;28;20025;-87
2023/09/30 09:44:56;;;;;;;10.70;2.25;;;;;;;28.58;47.33;100813.94;5013597;28;20437;-87
2023/09/30 09:47:23;;;;;;;11.23;2.40;;;;;;;28.70;47.15;100804.06;5030125;28;20069;-84
2023/09/30 09:49:50;;;;;;;7.97;2.50;;;;;;;28.83;46.74;100806.78;5030368;28;20378;-87
2023/09/30 09:52:17;;;;;;;8.00;2.40;;;;;;;28.90;46.30;100808.06;5030384;28;20037;-88
2023/09/30 09:54:45;;;;;;;7.22;2.33;;;;;;;28.92;45.47;100806.09;5028333;28;20032;-84
2023/09/30 09:57:11;;;;;;;8.93;2.30;;;;;;;28.88;45.24;100812.72;5023379;28;20064;-84
2023/09/30 09:59:39;;;;;;;8.13;2.47;;;;;;;28.86;45.52;100812.88;5023989;28;20501;-86
2023/09/30 10:02:11;;;;;;;9.20;2.47;;;;;;;28.96;45.57;100812.19;5025584;28;20037;-84
2023/09/30 10:04:37;;;;;;;10.43;2.40;;;;;;;29.13;44.89;100811.81;5027634;28;20025;-89
2023/09/30 10:07:05;;;;;;;9.07;2.22;;;;;;;29.31;44.11;100801.44;5029954;28;20029;-88
2023/09/30 10:09:35;;;;;;;6.70;2.03;;;;;;;29.33;43.78;100799.47;5029110;28;20034;-89
2023/09/30 10:12:01;;;;;;;9.27;2.20;;;;;;;29.39;44.12;100791.84;5029238;28;20493;-89
2023/09/30 10:14:32;;;;;;;8.18;2.08;;;;;;;29.48;44.04;100793.91;5028833;28;20026;-88
2023/09/30 10:16:58;;;;;;;7.20;2.28;;;;;;;29.64;43.51;100782.72;5028992;28;20025;-89
2023/09/30 10:19:24;;;;;;;11.80;2.50;;;;;;;29.75;43.49;100785.47;5029943;28;20017;-83
2023/09/30 10:22:21;;;;;;;7.93;2.60;;;;;;;29.83;43.35;100775.91;5027382;28;20041;-84
2023/09/30 10:24:49;;;;;;;6.53;2.20;;;;;;;30.05;42.63;100772.38;5027544;28;20030;-84
2023/09/30 10:27:32;;;;;;;8.77;2.58;;;;;;;29.99;42.85;100762.81;5026675;28;20048;-84
2023/09/30 10:29:59;;;;;;;7.45;2.10;;;;;;;30.12;42.79;100765.47;5026667;28;20490;-84
2023/09/30 10:32:53;;;;;;;7.47;2.30;;;;;;;30.08;43.18;100772.13;5026565;28;20080;-84
2023/09/30 10:35:27;;;;;;;6.97;2.23;;;;;;;30.28;42.83;100770.56;5028328;28;20036;-84
2023/09/30 10:38:22;;;;;;;8.25;2.53;;;;;;;30.39;41.97;100768.84;5029190;28;20053;-84
2023/09/30 10:40:48;;;;;;;6.85;2.22;;;;;;;30.59;41.95;100759.94;5028819;28;20029;-84
2023/09/30 10:43:33;;;;;;;6.88;2.53;;;;;;;30.58;41.57;100757.34;5029110;28;20034;-84
2023/09/30 10:46:05;;;;;;;5.85;1.95;;;;;;;30.74;41.89;100757.84;5028892;28;20033;-84
2023/09/30 10:48:37;;;;;;;7.70;2.47;;;;;;;30.87;41.78;100762.28;5028586;28;20380;-84
2023/09/30 10:51:14;;;;;;;8.38;2.42;;;;;;;30.92;41.50;100755.47;5029088;28;20081;-84
2023/09/30 10:53:55;;;;;;;6.97;2.10;;;;;;;31.11;41.18;100751.22;5028970;28;20030;-84
2023/09/30 10:56:21;;;;;;;6.85;2.22;;;;;;;31.17;40.71;100742.53;5028768;28;20022;-84
2023/09/30 10:58:49;;;;;;;5.53;2.20;;;;;;;31.21;40.82;100745.91;5028610;28;20029;-83
2023/09/30 11:01:16;;;;;;;9.03;2.57;;;;;;;31.33;40.82;100741.28;5010266;28;20409;-83
2023/09/30 11:03:42;;;;;;;7.97;2.50;;;;;;;31.44;40.44;100743.94;5009557;28;20037;-88
2023/09/30 11:06:13;;;;;;;8.13;2.20;;;;;;;31.50;40.38;100731.66;5031320;28;20033;-85
2023/09/30 11:08:45;;;;;;;8.20;2.58;;;;;;;31.61;38.49;100728.03;5032123;28;20096;-83
2023/09/30 11:11:10;;;;;;;6.97;2.05;;;;;;;31.56;39.20;100735.72;5032454;28;20041;-84
2023/09/30 11:13:36;;;;;;;7.30;2.23;;;;;;;31.61;39.63;100731.63;5032333;28;20021;-83
2023/09/30 11:16:07;;;;;;;7.17;2.30;;;;;;;31.67;39.46;100732.94;5031986;28;20067;-84
2023/09/30 11:18:32;;;;;;;6.38;2.30;;;;;;;31.70;39.46;100743.53;5030136;28;20111;-83
2023/09/30 11:21:10;;;;;;;8.32;2.42;;;;;;;31.72;39.61;100735.25;5012206;28;20518;-83